sensor_id;sensor_type;location;lat;lon;timestamp;pressure;altitude;pressure_sealevel;temperature;humidity
47811;BME280;33575;52.600;7.318;2024-02-14T00:00:46;101178.96;;;6.11;100.00
47811;BME280;33575;52.600;7.318;2024-02-14T00:03:17;101174.59;;;6.12;100.00
47811;BME280;33575;52.600;7.318;2024-02-14T00:05:47;101171.21;;;6.14;100.00
47811;BME280;33575;52.600;7.318;2024-02-14T00:08:18;101171.76;;;6.06;100.00
47811;BME280;33575;52.600;7.318;2024-02-14T00:10:48;101167.71;;;6.07;100.00
47811;BME280;33575;52.600;7.318;2024-02-14T00:13:19;101171.27;;;6.04;100.00
47811;BME280;33575;52.600;7.318;2024-02-14T00:15:49;101163.11;;;6.08;100.00
47811;BME280;33575;52.600;7.318;2024-02-14T00:18:20;101161.10;;;6.03;100.00
47811;BME280;33575;52.600;7.318;2024-02-14T00:20:50;101153.74;;;6.03;100.00
47811;BME280;33575;52.600;7.318;2024-02-14T00:23:20;101146.74;;;5.99;100.00
47811;BME280;33575;52.600;7.318;2024-02-14T00:25:51;101143.31;;;5.97;100.00
47811;BME280;33575;52.600;7.318;2024-02-14T00:28:21;101138.18;;;6.00;100.00
47811;BME280;33575;52.600;7.318;2024-02-14T00:30:52;101128.08;;;5.97;100.00
47811;BME280;33575;52.600;7.318;2024-02-14T00:33:23;101125.56;;;6.06;100.00
47811;BME280;33575;52.600;7.318;2024-02-14T00:35:54;101126.33;;;5.97;100.00
47811;BME280;33575;52.600;7.318;2024-02-14T00:38:24;101112.29;;;5.95;100.00
47811;BME280;33575;52.600;7.318;2024-02-14T00:40:54;101121.09;;;5.99;100.00
47811;BME280;33575;52.600;7.318;2024-02-14T00:43:25;101116.87;;;5.99;100.00
47811;BME280;33575;52.600;7.318;2024-02-14T00:45:56;101112.71;;;5.97;100.00
47811;BME280;33575;52.600;7.318;2024-02-14T00:48:26;101099.52;;;5.96;100.00
47811;BME280;33575;52.600;7.318;2024-02-14T00:50:57;101095.79;;;5.87;100.00
47811;BME280;33575;52.600;7.318;2024-02-14T00:53:27;101098.89;;;5.82;100.00
47811;BME280;33575;52.600;7.318;2024-02-14T00:55:58;101097.33;;;5.91;100.00
47811;BME280;33575;52.600;7.318;2024-02-14T00:58:28;101098.76;;;6.04;100.00
47811;BME280;33575;52.600;7.318;2024-02-14T01:00:58;101097.91;;;6.04;100.00
47811;BME280;33575;52.600;7.318;2024-02-14T01:03:29;101095.50;;;6.10;100.00
47811;BME280;33575;52.600;7.318;2024-02-14T01:05:59;101090.48;;;6.18;100.00
47811;BME280;33575;52.600;7.318;2024-02-14T01:08:30;101086.65;;;6.21;100.00
47811;BME280;33575;52.600;7.318;2024-02-14T01:11:00;101080.31;;;6.22;100.00
47811;BME280;33575;52.600;7.318;2024-02-14T01:13:30;101078.02;;;6.27;100.00
47811;BME280;33575;52.600;7.318;2024-02-14T01:16:00;101077.97;;;6.35;100.00
47811;BME280;33575;52.600;7.318;2024-02-14T01:18:31;101081.57;;;6.43;100.00
47811;BME280;33575;52.600;7.318;2024-02-14T01:21:02;101077.57;;;6.47;100.00
47811;BME280;33575;52.600;7.318;2024-02-14T01:23:32;101071.46;;;6.42;100.00
47811;BME280;33575;52.600;7.318;2024-02-14T01:26:02;101067.71;;;6.38;100.00
47811;BME280;33575;52.600;7.318;2024-02-14T01:28:33;101058.05;;;6.30;100.00
47811;BME280;33575;52.600;7.318;2024-02-14T01:31:03;101053.22;;;6.26;100.00
47811;BME280;33575;52.600;7.318;2024-02-14T01:33:34;101053.26;;;6.18;100.00
47811;BME280;33575;52.600;7.318;2024-02-14T01:36:04;101050.27;;;6.25;100.00
47811;BME280;33575;52.600;7.318;2024-02-14T01:38:34;101048.71;;;6.34;100.00
47811;BME280;33575;52.600;7.318;2024-02-14T01:41:05;101048.93;;;6.30;100.00
47811;BME280;33575;52.600;7.318;2024-02-14T01:43:36;101041.13;;;6.30;100.00
47811;BME280;33575;52.600;7.318;2024-02-14T01:46:07;101035.58;;;6.25;100.00
47811;BME280;33575;52.600;7.318;2024-02-14T01:48:37;101032.60;;;6.30;100.00
47811;BME280;33575;52.600;7.318;2024-02-14T01:51:09;101028.53;;;6.34;100.00
47811;BME280;33575;52.600;7.318;2024-02-14T01:53:38;101025.46;;;6.45;100.00
47811;BME280;33575;52.600;7.318;2024-02-14T01:56:08;101020.92;;;6.44;100.00
47811;BME280;33575;52.600;7.318;2024-02-14T01:58:39;101020.50;;;6.36;100.00
47811;BME280;33575;52.600;7.318;2024-02-14T02:01:09;101013.55;;;6.55;100.00
47811;BME280;33575;52.600;7.318;2024-02-14T02:03:40;101004.78;;;6.49;100.00
47811;BME280;33575;52.600;7.318;2024-02-14T02:06:11;101006.05;;;6.65;100.00
47811;BME280;33575;52.600;7.318;2024-02-14T02:08:42;101006.01;;;6.72;100.00
47811;BME280;33575;52.600;7.318;2024-02-14T02:11:12;101006.66;;;6.73;100.00
47811;BME280;33575;52.600;7.318;2024-02-14T02:13:42;101000.34;;;6.76;100.00
47811;BME280;33575;52.600;7.318;2024-02-14T02:16:12;100996.07;;;6.70;100.00
47811;BME280;33575;52.600;7.318;2024-02-14T02:18:43;101002.08;;;6.68;100.00
47811;BME280;33575;52.600;7.318;2024-02-14T02:21:14;100993.52;;;6.66;100.00
47811;BME280;33575;52.600;7.318;2024-02-14T02:23:45;100987.46;;;6.75;100.00
47811;BME280;33575;52.600;7.318;2024-02-14T02:26:15;100988.56;;;6.76;100.00
47811;BME280;33575;52.600;7.318;2024-02-14T02:28:46;100985.22;;;6.79;100.00
47811;BME280;33575;52.600;7.318;2024-02-14T02:31:16;100983.79;;;6.75;100.00
47811;BME280;33575;52.600;7.318;2024-02-14T02:33:47;100973.56;;;6.73;100.00
47811;BME280;33575;52.600;7.318;2024-02-14T02:36:17;100973.50;;;6.81;100.00
47811;BME280;33575;52.600;7.318;2024-02-14T02:38:48;100969.56;;;6.73;100.00
47811;BME280;33575;52.600;7.318;2024-02-14T02:41:19;100971.07;;;6.73;100.00
47811;BME280;33575;52.600;7.318;2024-02-14T02:43:49;100971.07;;;6.82;100.00
47811;BME280;33575;52.600;7.318;2024-02-14T02:46:20;100966.61;;;6.86;100.00
47811;BME280;33575;52.600;7.318;2024-02-14T02:48:51;100961.95;;;6.86;100.00
47811;BME280;33575;52.600;7.318;2024-02-14T02:51:21;100963.57;;;6.88;100.00
47811;BME280;33575;52.600;7.318;2024-02-14T02:53:51;100962.99;;;6.88;100.00
47811;BME280;33575;52.600;7.318;2024-02-14T02:56:22;100962.56;;;6.93;100.00
47811;BME280;33575;52.600;7.318;2024-02-14T02:58:54;100957.79;;;6.98;100.00
47811;BME280;33575;52.600;7.318;2024-02-14T03:01:23;100954.48;;;6.96;100.00
47811;BME280;33575;52.600;7.318;2024-02-14T03:03:54;100949.79;;;6.96;100.00
47811;BME280;33575;52.600;7.318;2024-02-14T03:06:25;100948.62;;;6.94;100.00
47811;BME280;33575;52.600;7.318;2024-02-14T03:08:56;100948.22;;;7.04;100.00
47811;BME280;33575;52.600;7.318;2024-02-14T03:11:27;100949.34;;;6.97;100.00
47811;BME280;33575;52.600;7.318;2024-02-14T03:13:57;100948.48;;;7.11;100.00
47811;BME280;33575;52.600;7.318;2024-02-14T03:16:27;100946.91;;;7.06;100.00
47811;BME280;33575;52.600;7.318;2024-02-14T03:18:58;100956.40;;;7.09;100.00
47811;BME280;33575;52.600;7.318;2024-02-14T03:21:28;100951.63;;;7.07;100.00
47811;BME280;33575;52.600;7.318;2024-02-14T03:23:59;100954.88;;;7.00;100.00
47811;BME280;33575;52.600;7.318;2024-02-14T03:26:29;100957.98;;;7.12;100.00
47811;BME280;33575;52.600;7.318;2024-02-14T03:29:00;100961.15;;;7.11;100.00
47811;BME280;33575;52.600;7.318;2024-02-14T03:31:31;100964.72;;;7.13;100.00
47811;BME280;33575;52.600;7.318;2024-02-14T03:34:02;100960.60;;;7.30;100.00
47811;BME280;33575;52.600;7.318;2024-02-14T03:36:32;100969.07;;;7.29;100.00
47811;BME280;33575;52.600;7.318;2024-02-14T03:39:03;100961.46;;;7.36;100.00
47811;BME280;33575;52.600;7.318;2024-02-14T03:41:33;100959.91;;;7.29;100.00
47811;BME280;33575;52.600;7.318;2024-02-14T03:44:04;100956.24;;;7.27;100.00
47811;BME280;33575;52.600;7.318;2024-02-14T03:46:35;100957.96;;;7.37;100.00
47811;BME280;33575;52.600;7.318;2024-02-14T03:49:05;100953.76;;;7.43;100.00
47811;BME280;33575;52.600;7.318;2024-02-14T03:51:36;100951.14;;;7.40;100.00
47811;BME280;33575;52.600;7.318;2024-02-14T03:54:06;100955.01;;;7.43;100.00
47811;BME280;33575;52.600;7.318;2024-02-14T03:56:37;100953.43;;;7.30;100.00
47811;BME280;33575;52.600;7.318;2024-02-14T03:59:08;100956.38;;;7.43;100.00
47811;BME280;33575;52.600;7.318;2024-02-14T04:01:38;100956.06;;;7.43;100.00
47811;BME280;33575;52.600;7.318;2024-02-14T04:04:09;100947.16;;;7.45;100.00
47811;BME280;33575;52.600;7.318;2024-02-14T04:06:39;100950.39;;;7.32;100.00
47811;BME280;33575;52.600;7.318;2024-02-14T04:09:10;100956.50;;;7.43;100.00
47811;BME280;33575;52.600;7.318;2024-02-14T04:11:40;100950.38;;;7.40;100.00
47811;BME280;33575;52.600;7.318;2024-02-14T04:14:11;100951.51;;;7.46;100.00
47811;BME280;33575;52.600;7.318;2024-02-14T04:16:42;100953.32;;;7.47;100.00
47811;BME280;33575;52.600;7.318;2024-02-14T04:19:13;100956.85;;;7.46;100.00
47811;BME280;33575;52.600;7.318;2024-02-14T04:21:44;100955.98;;;7.52;100.00
47811;BME280;33575;52.600;7.318;2024-02-14T04:24:14;100960.20;;;7.55;100.00
47811;BME280;33575;52.600;7.318;2024-02-14T04:26:44;100963.61;;;7.58;100.00
47811;BME280;33575;52.600;7.318;2024-02-14T04:29:15;100967.68;;;7.62;100.00
47811;BME280;33575;52.600;7.318;2024-02-14T04:31:45;100969.47;;;7.64;100.00
47811;BME280;33575;52.600;7.318;2024-02-14T04:34:16;100966.76;;;7.69;100.00
47811;BME280;33575;52.600;7.318;2024-02-14T04:36:47;100971.46;;;7.78;100.00
47811;BME280;33575;52.600;7.318;2024-02-14T04:39:17;100965.93;;;7.89;100.00
47811;BME280;33575;52.600;7.318;2024-02-14T04:41:53;100961.79;;;7.92;100.00
47811;BME280;33575;52.600;7.318;2024-02-14T04:44:18;100965.93;;;7.94;100.00
47811;BME280;33575;52.600;7.318;2024-02-14T04:46:49;100963.51;;;7.95;100.00
47811;BME280;33575;52.600;7.318;2024-02-14T04:49:20;100967.19;;;7.99;100.00
47811;BME280;33575;52.600;7.318;2024-02-14T04:51:51;100967.18;;;8.02;100.00
47811;BME280;33575;52.600;7.318;2024-02-14T04:54:21;100967.93;;;8.02;100.00
47811;BME280;33575;52.600;7.318;2024-02-14T04:56:56;100966.98;;;7.94;100.00
47811;BME280;33575;52.600;7.318;2024-02-14T04:59:22;100966.53;;;7.98;100.00
47811;BME280;33575;52.600;7.318;2024-02-14T05:01:52;100969.07;;;7.99;100.00
47811;BME280;33575;52.600;7.318;2024-02-14T05:04:23;100966.00;;;8.00;100.00
47811;BME280;33575;52.600;7.318;2024-02-14T05:06:58;100964.83;;;8.03;100.00
47811;BME280;33575;52.600;7.318;2024-02-14T05:09:24;100966.85;;;8.06;100.00
47811;BME280;33575;52.600;7.318;2024-02-14T05:11:55;100970.62;;;8.08;100.00
47811;BME280;33575;52.600;7.318;2024-02-14T05:14:26;100971.65;;;8.10;100.00
47811;BME280;33575;52.600;7.318;2024-02-14T05:16:57;100972.03;;;8.07;100.00
47811;BME280;33575;52.600;7.318;2024-02-14T05:19:26;100971.95;;;8.13;100.00
47811;BME280;33575;52.600;7.318;2024-02-14T05:21:57;100978.93;;;8.18;100.00
47811;BME280;33575;52.600;7.318;2024-02-14T05:24:27;100986.04;;;8.09;100.00
47811;BME280;33575;52.600;7.318;2024-02-14T05:26:58;100984.59;;;8.15;100.00
47811;BME280;33575;52.600;7.318;2024-02-14T05:29:29;100979.63;;;8.08;100.00
47811;BME280;33575;52.600;7.318;2024-02-14T05:31:59;100985.96;;;8.24;100.00
47811;BME280;33575;52.600;7.318;2024-02-14T05:34:30;100987.88;;;8.26;100.00
47811;BME280;33575;52.600;7.318;2024-02-14T05:37:00;100997.63;;;8.37;100.00
47811;BME280;33575;52.600;7.318;2024-02-14T05:39:31;101005.64;;;8.33;100.00
47811;BME280;33575;52.600;7.318;2024-02-14T05:42:02;100998.19;;;8.25;100.00
47811;BME280;33575;52.600;7.318;2024-02-14T05:44:32;100998.70;;;8.35;100.00
47811;BME280;33575;52.600;7.318;2024-02-14T05:47:03;100994.30;;;8.34;100.00
47811;BME280;33575;52.600;7.318;2024-02-14T05:49:33;101004.70;;;8.38;100.00
47811;BME280;33575;52.600;7.318;2024-02-14T05:52:05;101007.68;;;8.45;100.00
47811;BME280;33575;52.600;7.318;2024-02-14T05:54:34;101000.09;;;8.51;100.00
47811;BME280;33575;52.600;7.318;2024-02-14T05:57:05;101011.80;;;8.52;100.00
47811;BME280;33575;52.600;7.318;2024-02-14T05:59:37;101009.79;;;8.47;100.00
47811;BME280;33575;52.600;7.318;2024-02-14T06:02:06;101013.79;;;8.55;100.00
47811;BME280;33575;52.600;7.318;2024-02-14T06:04:37;101013.57;;;8.56;100.00
47811;BME280;33575;52.600;7.318;2024-02-14T06:07:07;101017.43;;;8.53;100.00
47811;BME280;33575;52.600;7.318;2024-02-14T06:09:38;101017.62;;;8.51;100.00
47811;BME280;33575;52.600;7.318;2024-02-14T06:12:08;101022.70;;;8.48;100.00
47811;BME280;33575;52.600;7.318;2024-02-14T06:14:39;101022.79;;;8.44;100.00
47811;BME280;33575;52.600;7.318;2024-02-14T06:17:10;101017.14;;;8.55;100.00
47811;BME280;33575;52.600;7.318;2024-02-14T06:19:42;101026.37;;;8.50;100.00
47811;BME280;33575;52.600;7.318;2024-02-14T06:22:11;101027.67;;;8.52;100.00
47811;BME280;33575;52.600;7.318;2024-02-14T06:24:41;101033.31;;;8.56;100.00
47811;BME280;33575;52.600;7.318;2024-02-14T06:27:12;101036.36;;;8.54;100.00
47811;BME280;33575;52.600;7.318;2024-02-14T06:29:42;101039.82;;;8.58;100.00
47811;BME280;33575;52.600;7.318;2024-02-14T06:32:13;101040.89;;;8.54;100.00
47811;BME280;33575;52.600;7.318;2024-02-14T06:34:44;101043.35;;;8.60;100.00
47811;BME280;33575;52.600;7.318;2024-02-14T06:37:14;101046.79;;;8.67;100.00
47811;BME280;33575;52.600;7.318;2024-02-14T06:39:45;101051.46;;;8.58;100.00
47811;BME280;33575;52.600;7.318;2024-02-14T06:42:16;101052.66;;;8.58;100.00
47811;BME280;33575;52.600;7.318;2024-02-14T06:44:46;101056.65;;;8.50;100.00
47811;BME280;33575;52.600;7.318;2024-02-14T06:47:16;101060.28;;;8.63;100.00
47811;BME280;33575;52.600;7.318;2024-02-14T06:49:47;101062.96;;;8.69;100.00
47811;BME280;33575;52.600;7.318;2024-02-14T06:52:17;101074.61;;;8.71;100.00
47811;BME280;33575;52.600;7.318;2024-02-14T06:54:48;101066.69;;;8.72;100.00
47811;BME280;33575;52.600;7.318;2024-02-14T06:57:19;101072.27;;;8.73;100.00
47811;BME280;33575;52.600;7.318;2024-02-14T06:59:49;101076.57;;;8.74;100.00
47811;BME280;33575;52.600;7.318;2024-02-14T07:02:20;101073.13;;;8.75;100.00
47811;BME280;33575;52.600;7.318;2024-02-14T07:04:50;101078.90;;;8.89;100.00
47811;BME280;33575;52.600;7.318;2024-02-14T07:07:21;101087.10;;;9.00;100.00
47811;BME280;33575;52.600;7.318;2024-02-14T07:09:51;101089.76;;;9.01;100.00
47811;BME280;33575;52.600;7.318;2024-02-14T07:12:22;101093.07;;;9.05;100.00
47811;BME280;33575;52.600;7.318;2024-02-14T07:14:52;101093.17;;;9.01;100.00
47811;BME280;33575;52.600;7.318;2024-02-14T07:17:23;101098.46;;;9.07;100.00
47811;BME280;33575;52.600;7.318;2024-02-14T07:19:53;101096.14;;;8.94;100.00
47811;BME280;33575;52.600;7.318;2024-02-14T07:22:23;101095.00;;;9.03;100.00
47811;BME280;33575;52.600;7.318;2024-02-14T07:24:54;101101.69;;;9.04;100.00
47811;BME280;33575;52.600;7.318;2024-02-14T07:27:24;101102.37;;;9.02;100.00
47811;BME280;33575;52.600;7.318;2024-02-14T07:29:55;101101.77;;;8.92;100.00
47811;BME280;33575;52.600;7.318;2024-02-14T07:32:25;101108.90;;;8.84;100.00
47811;BME280;33575;52.600;7.318;2024-02-14T07:34:55;101114.29;;;8.90;100.00
47811;BME280;33575;52.600;7.318;2024-02-14T07:37:25;101113.27;;;8.92;100.00
47811;BME280;33575;52.600;7.318;2024-02-14T07:39:55;101116.52;;;8.93;100.00
47811;BME280;33575;52.600;7.318;2024-02-14T07:42:26;101123.32;;;9.00;100.00
47811;BME280;33575;52.600;7.318;2024-02-14T07:44:56;101123.36;;;8.97;100.00
47811;BME280;33575;52.600;7.318;2024-02-14T07:47:26;101118.10;;;8.97;100.00
47811;BME280;33575;52.600;7.318;2024-02-14T07:49:57;101125.07;;;9.08;100.00
47811;BME280;33575;52.600;7.318;2024-02-14T07:52:27;101124.61;;;9.13;100.00
47811;BME280;33575;52.600;7.318;2024-02-14T07:54:58;101127.31;;;9.15;100.00
47811;BME280;33575;52.600;7.318;2024-02-14T07:57:29;101127.93;;;9.24;100.00
47811;BME280;33575;52.600;7.318;2024-02-14T07:59:59;101132.20;;;9.27;100.00
47811;BME280;33575;52.600;7.318;2024-02-14T08:02:29;101136.17;;;9.31;100.00
47811;BME280;33575;52.600;7.318;2024-02-14T08:05:00;101142.05;;;9.30;100.00
47811;BME280;33575;52.600;7.318;2024-02-14T08:07:31;101140.26;;;9.28;100.00
47811;BME280;33575;52.600;7.318;2024-02-14T08:10:01;101151.65;;;9.35;100.00
47811;BME280;33575;52.600;7.318;2024-02-14T08:12:31;101144.62;;;9.35;100.00
47811;BME280;33575;52.600;7.318;2024-02-14T08:15:02;101147.73;;;9.37;100.00
47811;BME280;33575;52.600;7.318;2024-02-14T08:17:33;101148.15;;;9.36;100.00
47811;BME280;33575;52.600;7.318;2024-02-14T08:20:04;101150.01;;;9.40;100.00
47811;BME280;33575;52.600;7.318;2024-02-14T08:22:33;101150.31;;;9.42;100.00
47811;BME280;33575;52.600;7.318;2024-02-14T08:25:04;101149.01;;;9.45;100.00
47811;BME280;33575;52.600;7.318;2024-02-14T08:27:34;101150.95;;;9.44;100.00
47811;BME280;33575;52.600;7.318;2024-02-14T08:30:06;101153.59;;;9.45;100.00
47811;BME280;33575;52.600;7.318;2024-02-14T08:32:36;101153.89;;;9.45;100.00
47811;BME280;33575;52.600;7.318;2024-02-14T08:35:07;101160.80;;;9.51;100.00
47811;BME280;33575;52.600;7.318;2024-02-14T08:37:37;101166.07;;;9.53;100.00
47811;BME280;33575;52.600;7.318;2024-02-14T08:40:08;101160.04;;;9.53;100.00
47811;BME280;33575;52.600;7.318;2024-02-14T08:42:38;101161.44;;;9.55;100.00
47811;BME280;33575;52.600;7.318;2024-02-14T08:45:09;101165.70;;;9.54;100.00
47811;BME280;33575;52.600;7.318;2024-02-14T08:47:39;101166.49;;;9.58;100.00
47811;BME280;33575;52.600;7.318;2024-02-14T08:50:10;101175.75;;;9.60;100.00
47811;BME280;33575;52.600;7.318;2024-02-14T08:52:40;101176.02;;;9.66;100.00
47811;BME280;33575;52.600;7.318;2024-02-14T08:55:10;101180.38;;;9.69;100.00
47811;BME280;33575;52.600;7.318;2024-02-14T08:57:41;101181.02;;;9.66;100.00
47811;BME280;33575;52.600;7.318;2024-02-14T09:00:12;101178.94;;;9.78;100.00
47811;BME280;33575;52.600;7.318;2024-02-14T09:02:42;101182.27;;;9.83;100.00
47811;BME280;33575;52.600;7.318;2024-02-14T09:05:12;101180.33;;;9.70;100.00
47811;BME280;33575;52.600;7.318;2024-02-14T09:07:43;101178.20;;;9.73;100.00
47811;BME280;33575;52.600;7.318;2024-02-14T09:10:13;101184.84;;;9.74;100.00
47811;BME280;33575;52.600;7.318;2024-02-14T09:12:43;101187.39;;;9.83;100.00
47811;BME280;33575;52.600;7.318;2024-02-14T09:15:14;101189.92;;;9.87;100.00
47811;BME280;33575;52.600;7.318;2024-02-14T09:17:45;101191.53;;;9.88;100.00
47811;BME280;33575;52.600;7.318;2024-02-14T09:20:14;101195.45;;;9.90;100.00
47811;BME280;33575;52.600;7.318;2024-02-14T09:22:45;101194.21;;;9.84;100.00
47811;BME280;33575;52.600;7.318;2024-02-14T09:25:16;101194.96;;;9.75;100.00
47811;BME280;33575;52.600;7.318;2024-02-14T09:27:46;101194.60;;;9.82;100.00
47811;BME280;33575;52.600;7.318;2024-02-14T09:30:21;101196.36;;;9.82;100.00
47811;BME280;33575;52.600;7.318;2024-02-14T09:32:47;101199.03;;;9.91;100.00
47811;BME280;33575;52.600;7.318;2024-02-14T09:35:17;101203.74;;;9.94;100.00
47811;BME280;33575;52.600;7.318;2024-02-14T09:37:47;101203.59;;;10.00;100.00
47811;BME280;33575;52.600;7.318;2024-02-14T09:40:18;101206.09;;;9.96;100.00
47811;BME280;33575;52.600;7.318;2024-02-14T09:42:53;101205.60;;;9.98;100.00
47811;BME280;33575;52.600;7.318;2024-02-14T09:45:25;101209.05;;;10.09;100.00
47811;BME280;33575;52.600;7.318;2024-02-14T09:47:50;101210.54;;;10.13;100.00
47811;BME280;33575;52.600;7.318;2024-02-14T09:50:20;101216.33;;;10.17;100.00
47811;BME280;33575;52.600;7.318;2024-02-14T09:52:51;101208.90;;;10.13;100.00
47811;BME280;33575;52.600;7.318;2024-02-14T09:55:23;101209.30;;;10.04;100.00
47811;BME280;33575;52.600;7.318;2024-02-14T09:57:52;101215.27;;;10.14;100.00
47811;BME280;33575;52.600;7.318;2024-02-14T10:00:22;101216.13;;;10.14;100.00
47811;BME280;33575;52.600;7.318;2024-02-14T10:02:52;101214.95;;;10.19;100.00
47811;BME280;33575;52.600;7.318;2024-02-14T10:05:23;101218.21;;;10.17;100.00
47811;BME280;33575;52.600;7.318;2024-02-14T10:07:56;101213.89;;;10.20;100.00
47811;BME280;33575;52.600;7.318;2024-02-14T10:10:24;101215.73;;;10.21;100.00
47811;BME280;33575;52.600;7.318;2024-02-14T10:12:55;101213.82;;;10.24;100.00
47811;BME280;33575;52.600;7.318;2024-02-14T10:15:25;101217.59;;;10.24;100.00
47811;BME280;33575;52.600;7.318;2024-02-14T10:17:57;101213.35;;;10.25;100.00
47811;BME280;33575;52.600;7.318;2024-02-14T10:20:26;101217.66;;;10.27;100.00
47811;BME280;33575;52.600;7.318;2024-02-14T10:23:01;101225.39;;;10.29;100.00
47811;BME280;33575;52.600;7.318;2024-02-14T10:25:28;101227.18;;;10.26;100.00
47811;BME280;33575;52.600;7.318;2024-02-14T10:27:57;101230.57;;;10.37;100.00
47811;BME280;33575;52.600;7.318;2024-02-14T10:30:27;101240.51;;;10.32;100.00
47811;BME280;33575;52.600;7.318;2024-02-14T10:33:03;101234.06;;;10.34;100.00
47811;BME280;33575;52.600;7.318;2024-02-14T10:35:30;101235.75;;;10.36;100.00
47811;BME280;33575;52.600;7.318;2024-02-14T10:37:59;101241.32;;;10.31;100.00
47811;BME280;33575;52.600;7.318;2024-02-14T10:40:29;101242.98;;;10.21;100.00
47811;BME280;33575;52.600;7.318;2024-02-14T10:42:59;101246.59;;;10.35;100.00
47811;BME280;33575;52.600;7.318;2024-02-14T10:45:29;101249.48;;;10.37;100.00
47811;BME280;33575;52.600;7.318;2024-02-14T10:48:01;101249.48;;;10.40;100.00
47811;BME280;33575;52.600;7.318;2024-02-14T10:50:33;101251.51;;;10.42;100.00
47811;BME280;33575;52.600;7.318;2024-02-14T10:53:04;101254.68;;;10.39;100.00
47811;BME280;33575;52.600;7.318;2024-02-14T10:55:31;101253.54;;;10.47;100.00
47811;BME280;33575;52.600;7.318;2024-02-14T10:58:02;101254.55;;;10.43;100.00
47811;BME280;33575;52.600;7.318;2024-02-14T11:00:32;101255.07;;;10.43;100.00
47811;BME280;33575;52.600;7.318;2024-02-14T11:03:02;101256.34;;;10.46;100.00
47811;BME280;33575;52.600;7.318;2024-02-14T11:05:42;101246.21;;;10.48;100.00
47811;BME280;33575;52.600;7.318;2024-02-14T11:08:08;101247.10;;;10.66;100.00
47811;BME280;33575;52.600;7.318;2024-02-14T11:10:37;101253.27;;;10.64;100.00
47811;BME280;33575;52.600;7.318;2024-02-14T11:13:04;101253.82;;;10.69;100.00
47811;BME280;33575;52.600;7.318;2024-02-14T11:15:35;101252.99;;;10.57;100.00
47811;BME280;33575;52.600;7.318;2024-02-14T11:18:06;101256.44;;;10.62;100.00
47811;BME280;33575;52.600;7.318;2024-02-14T11:20:36;101255.07;;;10.61;100.00
47811;BME280;33575;52.600;7.318;2024-02-14T11:23:07;101254.17;;;10.56;100.00
47811;BME280;33575;52.600;7.318;2024-02-14T11:25:37;101253.02;;;10.51;100.00
47811;BME280;33575;52.600;7.318;2024-02-14T11:28:13;101253.02;;;10.50;100.00
47811;BME280;33575;52.600;7.318;2024-02-14T11:30:40;101258.75;;;10.44;100.00
47811;BME280;33575;52.600;7.318;2024-02-14T11:33:13;101259.64;;;10.38;100.00
47811;BME280;33575;52.600;7.318;2024-02-14T11:35:40;101261.02;;;10.33;100.00
47811;BME280;33575;52.600;7.318;2024-02-14T11:38:09;101259.22;;;10.36;100.00
47811;BME280;33575;52.600;7.318;2024-02-14T11:40:39;101256.53;;;10.33;100.00
47811;BME280;33575;52.600;7.318;2024-02-14T11:43:12;101258.93;;;10.34;100.00
47811;BME280;33575;52.600;7.318;2024-02-14T11:45:41;101262.45;;;10.48;100.00
47811;BME280;33575;52.600;7.318;2024-02-14T11:48:12;101260.82;;;10.51;100.00
47811;BME280;33575;52.600;7.318;2024-02-14T11:50:42;101256.70;;;10.54;100.00
47811;BME280;33575;52.600;7.318;2024-02-14T11:53:12;101259.60;;;10.48;100.00
47811;BME280;33575;52.600;7.318;2024-02-14T11:55:42;101252.26;;;10.52;100.00
47811;BME280;33575;52.600;7.318;2024-02-14T11:58:14;101248.72;;;10.54;100.00
47811;BME280;33575;52.600;7.318;2024-02-14T12:00:44;101252.49;;;10.60;100.00
47811;BME280;33575;52.600;7.318;2024-02-14T12:03:16;101245.23;;;10.59;100.00
47811;BME280;33575;52.600;7.318;2024-02-14T12:05:46;101255.31;;;10.47;100.00
47811;BME280;33575;52.600;7.318;2024-02-14T12:08:15;101252.02;;;10.61;100.00
47811;BME280;33575;52.600;7.318;2024-02-14T12:10:45;101251.59;;;10.58;100.00
47811;BME280;33575;52.600;7.318;2024-02-14T12:13:20;101248.99;;;10.67;100.00
47811;BME280;33575;52.600;7.318;2024-02-14T12:15:47;101246.12;;;10.68;100.00
47811;BME280;33575;52.600;7.318;2024-02-14T12:18:19;101247.85;;;10.71;100.00
47811;BME280;33575;52.600;7.318;2024-02-14T12:20:47;101248.71;;;10.74;100.00
47811;BME280;33575;52.600;7.318;2024-02-14T12:23:18;101249.70;;;10.87;100.00
47811;BME280;33575;52.600;7.318;2024-02-14T12:25:48;101251.47;;;10.93;100.00
47811;BME280;33575;52.600;7.318;2024-02-14T12:28:19;101249.87;;;10.87;100.00
47811;BME280;33575;52.600;7.318;2024-02-14T12:30:50;101245.49;;;10.97;100.00
47811;BME280;33575;52.600;7.318;2024-02-14T12:33:21;101248.70;;;11.06;100.00
47811;BME280;33575;52.600;7.318;2024-02-14T12:35:51;101251.93;;;11.09;100.00
47811;BME280;33575;52.600;7.318;2024-02-14T12:38:21;101250.29;;;11.15;100.00
47811;BME280;33575;52.600;7.318;2024-02-14T12:40:51;101246.43;;;11.01;100.00
47811;BME280;33575;52.600;7.318;2024-02-14T12:43:21;101248.63;;;11.11;100.00
47811;BME280;33575;52.600;7.318;2024-02-14T12:45:51;101248.27;;;10.97;100.00
47811;BME280;33575;52.600;7.318;2024-02-14T12:48:23;101251.64;;;11.02;100.00
47811;BME280;33575;52.600;7.318;2024-02-14T12:50:52;101248.98;;;11.03;100.00
47811;BME280;33575;52.600;7.318;2024-02-14T12:53:23;101252.22;;;11.04;100.00
47811;BME280;33575;52.600;7.318;2024-02-14T12:55:53;101243.86;;;11.08;100.00
47811;BME280;33575;52.600;7.318;2024-02-14T12:58:23;101249.93;;;11.11;100.00
47811;BME280;33575;52.600;7.318;2024-02-14T13:00:54;101251.44;;;11.09;100.00
47811;BME280;33575;52.600;7.318;2024-02-14T13:03:24;101246.18;;;11.11;100.00